createdAt,value
2018-03-17T00:01:03.410Z,9.60
2018-03-17T00:03:30.957Z,12.20
2018-03-17T00:05:58.505Z,6.70
2018-03-17T00:08:26.827Z,9.20
2018-03-17T00:10:54.365Z,8.98
2018-03-17T00:13:21.921Z,10.18
2018-03-17T00:15:49.481Z,12.07
2018-03-17T00:18:17.036Z,9.60
2018-03-17T00:20:44.582Z,11.38
2018-03-17T00:23:12.944Z,10.27
2018-03-17T00:25:40.497Z,8.43
2018-03-17T00:28:08.061Z,7.20
2018-03-17T00:30:35.607Z,8.05
2018-03-17T00:33:03.194Z,8.88
2018-03-17T00:35:31.484Z,9.50
2018-03-17T00:38:00.407Z,10.90
2018-03-17T00:40:27.962Z,7.87
2018-03-17T00:42:55.523Z,8.07
2018-03-17T00:45:23.082Z,8.65
2018-03-17T00:47:51.340Z,9.85
2018-03-17T00:50:18.892Z,5.55
2018-03-17T00:52:47.221Z,6.78
2018-03-17T00:55:14.756Z,8.98
2018-03-17T00:57:42.329Z,11.43
2018-03-17T01:00:09.860Z,7.10
2018-03-17T01:02:37.406Z,6.80
2018-03-17T01:05:06.654Z,9.73
2018-03-17T01:07:34.192Z,5.90
2018-03-17T01:10:01.740Z,9.73
2018-03-17T01:12:29.285Z,6.18
2018-03-17T01:14:57.613Z,8.25
2018-03-17T01:17:25.161Z,7.95
2018-03-17T01:19:52.692Z,8.52
2018-03-17T01:22:20.254Z,11.82
2018-03-17T01:24:47.812Z,8.00
2018-03-17T01:27:15.340Z,6.90
2018-03-17T01:29:42.903Z,6.20
2018-03-17T01:32:10.437Z,7.20
2018-03-17T01:34:37.972Z,4.80
2018-03-17T01:37:05.512Z,8.32
2018-03-17T01:39:33.057Z,5.22
2018-03-17T01:42:01.412Z,9.32
2018-03-17T01:44:28.947Z,9.55
2018-03-17T01:46:56.503Z,6.43
2018-03-17T01:49:24.037Z,9.77
2018-03-17T01:51:51.593Z,8.85
2018-03-17T01:54:31.270Z,16.35
2018-03-17T01:56:58.814Z,7.40
2018-03-17T01:59:26.372Z,6.25
2018-03-17T02:01:53.934Z,7.15
2018-03-17T02:04:21.492Z,12.00
2018-03-17T02:06:49.825Z,9.40
2018-03-17T02:09:17.375Z,10.98
2018-03-17T02:11:44.930Z,7.18
2018-03-17T02:14:12.536Z,6.65
2018-03-17T02:16:40.072Z,7.03
2018-03-17T02:19:07.632Z,6.22
2018-03-17T02:21:35.194Z,8.65
2018-03-17T02:24:02.754Z,7.87
2018-03-17T02:26:30.314Z,9.15
2018-03-17T02:28:57.882Z,10.88
2018-03-17T02:31:25.440Z,9.10
2018-03-17T02:33:52.969Z,8.18
2018-03-17T02:36:20.556Z,6.18
2018-03-17T02:38:48.106Z,9.85
2018-03-17T02:41:15.657Z,9.10
2018-03-17T02:43:43.249Z,10.18
2018-03-17T02:46:10.794Z,10.48
2018-03-17T02:48:38.336Z,11.12
2018-03-17T02:51:05.898Z,9.00
2018-03-17T02:53:34.337Z,11.23
2018-03-17T02:56:02.658Z,9.77
2018-03-17T02:58:30.513Z,8.95
2018-03-17T03:00:58.068Z,12.73
2018-03-17T03:03:25.616Z,10.77
2018-03-17T03:05:53.171Z,20.37
2018-03-17T03:08:21.502Z,14.95
2018-03-17T03:10:49.066Z,14.98
2018-03-17T03:13:16.655Z,25.83
2018-03-17T03:15:44.984Z,21.08
2018-03-17T03:18:12.544Z,26.17
2018-03-17T03:20:40.098Z,28.42
2018-03-17T03:23:07.658Z,22.33
2018-03-17T03:25:35.193Z,14.93
2018-03-17T03:28:02.750Z,12.45
2018-03-17T03:30:30.364Z,10.45
2018-03-17T03:32:57.908Z,8.65
2018-03-17T03:35:25.449Z,8.80
2018-03-17T03:37:52.992Z,8.10
2018-03-17T03:40:20.545Z,12.60
2018-03-17T03:42:48.130Z,11.02
2018-03-17T03:45:16.451Z,15.45
2018-03-17T03:47:43.997Z,20.50
2018-03-17T03:50:11.572Z,26.40
2018-03-17T03:52:39.133Z,25.62
2018-03-17T03:55:06.676Z,30.55
2018-03-17T03:57:34.258Z,23.98
2018-03-17T04:00:01.821Z,32.90
2018-03-17T04:02:29.372Z,30.08
2018-03-17T04:04:56.924Z,33.25
2018-03-17T04:07:24.467Z,30.35
2018-03-17T04:09:52.012Z,33.33
2018-03-17T04:12:19.555Z,29.25
2018-03-17T04:14:47.848Z,33.38
2018-03-17T04:17:16.165Z,29.67
2018-03-17T04:19:43.693Z,29.95
2018-03-17T04:22:11.324Z,28.17
2018-03-17T04:24:38.865Z,34.97
2018-03-17T04:27:06.417Z,27.65
2018-03-17T04:29:35.480Z,29.98
2018-03-17T04:32:03.029Z,31.30
2018-03-17T04:34:30.568Z,29.90
2018-03-17T04:36:58.884Z,34.42
2018-03-17T04:39:26.422Z,31.58
2018-03-17T04:41:53.955Z,32.92
2018-03-17T04:44:21.528Z,30.33
2018-03-17T04:46:49.864Z,37.30
2018-03-17T04:49:17.416Z,33.28
2018-03-17T04:51:44.955Z,37.20
2018-03-17T04:54:12.509Z,34.53
2018-03-17T04:56:40.065Z,37.33
2018-03-17T04:59:07.629Z,33.83
2018-03-17T05:01:35.166Z,31.55
2018-03-17T05:04:02.721Z,32.47
2018-03-17T05:06:30.273Z,42.00
2018-03-17T05:08:57.827Z,51.37
2018-03-17T05:11:25.356Z,36.08
2018-03-17T05:13:52.885Z,33.50
2018-03-17T05:16:20.439Z,44.50
2018-03-17T05:18:47.973Z,32.92
2018-03-17T05:21:15.538Z,38.65
2018-03-17T05:23:43.075Z,41.80
2018-03-17T05:26:10.629Z,38.80
2018-03-17T05:28:38.925Z,38.72
2018-03-17T05:31:06.492Z,39.20
2018-03-17T05:33:34.025Z,99.15
2018-03-17T05:36:02.347Z,39.80
2018-03-17T05:38:29.897Z,34.72
2018-03-17T05:40:57.456Z,64.20
2018-03-17T05:43:25.041Z,42.80
2018-03-17T05:45:52.588Z,41.95
2018-03-17T05:48:20.151Z,58.35
2018-03-17T05:50:47.687Z,39.60
2018-03-17T05:53:15.243Z,57.55
2018-03-17T05:55:42.776Z,45.50
2018-03-17T05:58:11.099Z,38.17
2018-03-17T06:00:38.651Z,45.83
2018-03-17T06:03:06.238Z,45.88
2018-03-17T06:05:33.793Z,47.03
2018-03-17T06:08:01.340Z,45.40
2018-03-17T06:10:28.894Z,49.55
2018-03-17T06:12:56.469Z,41.72
2018-03-17T06:15:24.038Z,41.60
2018-03-17T06:17:51.600Z,43.75
2018-03-17T06:20:19.166Z,45.53
2018-03-17T06:22:46.700Z,45.12
2018-03-17T06:25:14.254Z,45.25
2018-03-17T06:27:41.807Z,41.30
2018-03-17T06:30:09.375Z,42.28
2018-03-17T06:32:36.928Z,41.30
2018-03-17T06:35:04.477Z,41.95
2018-03-17T06:37:32.021Z,44.97
2018-03-17T06:40:00.369Z,49.30
2018-03-17T06:42:27.909Z,45.12
2018-03-17T06:44:55.457Z,48.55
2018-03-17T06:47:22.985Z,45.50
2018-03-17T06:49:50.548Z,43.70
2018-03-17T06:52:18.157Z,42.88
2018-03-17T06:54:45.723Z,44.95
2018-03-17T06:57:13.273Z,45.45
2018-03-17T06:59:40.822Z,39.35
2018-03-17T07:02:08.400Z,45.08
2018-03-17T07:04:35.932Z,47.40
2018-03-17T07:07:03.506Z,49.97
2018-03-17T07:09:31.044Z,40.30
2018-03-17T07:11:58.596Z,40.97
2018-03-17T07:14:26.144Z,37.92
2018-03-17T07:16:53.673Z,47.50
2018-03-17T07:19:21.241Z,43.65
2018-03-17T07:21:49.542Z,45.78
2018-03-17T07:24:17.102Z,45.00
2018-03-17T07:26:44.633Z,54.50
2018-03-17T07:29:14.478Z,40.08
2018-03-17T07:31:42.012Z,43.72
2018-03-17T07:34:10.333Z,46.13
2018-03-17T07:36:37.881Z,46.65
2018-03-17T07:39:05.433Z,45.25
2018-03-17T07:41:32.982Z,44.38
2018-03-17T07:44:01.306Z,49.50
2018-03-17T07:46:28.928Z,42.42
2018-03-17T07:48:56.489Z,57.50
2018-03-17T07:51:24.050Z,45.90
2018-03-17T07:53:51.581Z,44.30
2018-03-17T07:56:19.920Z,46.15
2018-03-17T07:58:47.481Z,45.15
2018-03-17T08:01:15.033Z,48.97
2018-03-17T08:03:43.353Z,45.35
2018-03-17T08:06:10.907Z,37.35
2018-03-17T08:08:38.444Z,39.47
2018-03-17T08:11:06.005Z,41.75
2018-03-17T08:13:33.536Z,40.78
2018-03-17T08:16:01.886Z,45.33
2018-03-17T08:18:29.422Z,38.25
2018-03-17T08:20:57.214Z,37.95
2018-03-17T08:23:24.976Z,38.97
2018-03-17T08:25:52.533Z,45.97
2018-03-17T08:28:20.088Z,43.72
2018-03-17T08:30:47.636Z,40.60
2018-03-17T08:33:15.193Z,49.00
2018-03-17T08:35:42.742Z,48.30
2018-03-17T08:38:10.305Z,43.92
2018-03-17T08:40:37.834Z,46.78
2018-03-17T08:43:05.380Z,43.13
2018-03-17T08:45:32.937Z,41.08
2018-03-17T08:48:00.485Z,42.55
2018-03-17T08:50:28.057Z,47.88
2018-03-17T08:52:55.585Z,42.08
2018-03-17T09:02:10.068Z,36.80
2018-03-17T09:04:37.629Z,34.60
2018-03-17T09:07:05.224Z,43.67
2018-03-17T09:09:32.778Z,42.53
2018-03-17T09:12:00.319Z,37.42
2018-03-17T09:14:27.852Z,38.45
2018-03-17T09:16:56.168Z,46.83
2018-03-17T09:19:23.693Z,42.33
2018-03-17T09:21:52.038Z,40.65
2018-03-17T09:24:19.598Z,37.50
2018-03-17T09:26:47.152Z,40.05
2018-03-17T09:29:14.689Z,34.35
2018-03-17T09:31:42.253Z,38.83
2018-03-17T09:34:09.789Z,40.83
2018-03-17T09:36:37.361Z,38.63
2018-03-17T09:39:04.905Z,42.33
2018-03-17T09:41:32.489Z,40.67
2018-03-17T09:44:00.070Z,40.50
2018-03-17T09:46:27.641Z,43.17
2018-03-17T09:48:55.993Z,42.83
2018-03-17T09:51:23.530Z,37.55
2018-03-17T09:53:51.068Z,41.55
2018-03-17T09:56:18.629Z,38.47
2018-03-17T09:58:46.901Z,37.45
2018-03-17T10:01:14.461Z,37.70
2018-03-17T10:03:42.056Z,36.63
2018-03-17T10:06:09.614Z,35.13
2018-03-17T10:08:37.175Z,39.10
2018-03-17T10:11:04.757Z,37.03
2018-03-17T10:13:32.310Z,41.42
2018-03-17T10:15:59.862Z,35.47
2018-03-17T10:18:27.414Z,37.42
2018-03-17T10:20:54.966Z,38.20
2018-03-17T10:23:22.544Z,35.67
2018-03-17T10:25:50.093Z,39.75
2018-03-17T10:28:17.648Z,44.00
2018-03-17T10:30:45.201Z,43.17
2018-03-17T10:33:12.764Z,37.55
2018-03-17T10:35:40.314Z,40.78
2018-03-17T10:38:07.850Z,35.88
2018-03-17T10:40:35.427Z,37.47
2018-03-17T10:43:02.970Z,34.90
2018-03-17T10:45:30.539Z,38.47
2018-03-17T10:47:58.085Z,38.40
2018-03-17T10:50:25.662Z,40.95
2018-03-17T10:52:53.210Z,43.05
2018-03-17T10:55:20.816Z,44.47
2018-03-17T10:57:49.114Z,35.20
2018-03-17T11:00:22.419Z,34.45
2018-03-17T11:02:52.950Z,37.05
2018-03-17T11:05:20.502Z,36.35
2018-03-17T11:07:48.040Z,44.85
2018-03-17T11:10:16.368Z,38.30
2018-03-17T11:12:43.925Z,44.17
2018-03-17T11:15:11.456Z,36.92
2018-03-17T11:17:39.035Z,41.53
2018-03-17T11:20:06.576Z,35.05
2018-03-17T11:22:34.144Z,37.30
2018-03-17T11:25:01.812Z,42.70
2018-03-17T11:27:29.389Z,42.10
2018-03-17T11:29:56.945Z,42.22
2018-03-17T11:32:24.518Z,38.55
2018-03-17T11:34:52.058Z,36.78
2018-03-17T11:37:19.649Z,34.47
2018-03-17T11:39:47.210Z,37.28
2018-03-17T11:42:14.766Z,36.88
2018-03-17T11:44:42.305Z,34.88
2018-03-17T11:47:12.482Z,35.70
2018-03-17T11:49:40.793Z,38.08
2018-03-17T11:52:08.350Z,34.78
2018-03-17T11:54:35.923Z,36.58
2018-03-17T11:57:03.489Z,36.33
2018-03-17T11:59:31.045Z,33.78
2018-03-17T12:01:58.596Z,39.30
2018-03-17T12:04:26.145Z,38.13
2018-03-17T12:06:53.696Z,39.03
2018-03-17T12:09:21.253Z,39.75
2018-03-17T12:11:48.796Z,40.63
2018-03-17T12:14:16.390Z,36.22
2018-03-17T12:16:43.946Z,39.20
2018-03-17T12:19:11.501Z,35.38
2018-03-17T12:21:39.061Z,37.13
2018-03-17T12:24:06.624Z,37.28
2018-03-17T12:26:34.184Z,39.00
2018-03-17T12:29:01.770Z,33.67
2018-03-17T12:31:29.338Z,35.92
2018-03-17T12:33:56.909Z,32.83
2018-03-17T12:36:25.217Z,33.17
2018-03-17T12:38:53.549Z,37.72
2018-03-17T12:41:21.103Z,35.80
2018-03-17T12:43:48.695Z,33.10
2018-03-17T12:46:16.225Z,32.38
2018-03-17T12:48:43.797Z,35.42
2018-03-17T12:51:11.345Z,28.30
2018-03-17T12:53:38.908Z,28.15
2018-03-17T12:56:06.465Z,32.15
2018-03-17T12:58:34.033Z,36.95
2018-03-17T13:01:01.578Z,37.63
2018-03-17T13:03:29.150Z,30.30
2018-03-17T13:05:56.746Z,31.10
2018-03-17T13:08:25.083Z,33.47
2018-03-17T13:10:52.625Z,32.85
2018-03-17T13:13:20.181Z,27.42
2018-03-17T13:15:47.883Z,32.17
2018-03-17T13:18:15.305Z,36.22
2018-03-17T13:20:42.840Z,30.20
2018-03-17T13:23:16.702Z,31.20
2018-03-17T13:25:44.268Z,30.08
2018-03-17T13:28:32.562Z,35.67
2018-03-17T13:31:00.116Z,32.85
2018-03-17T13:33:27.665Z,31.55
2018-03-17T13:36:07.614Z,33.05
2018-03-17T13:38:35.912Z,33.28
2018-03-17T13:41:03.470Z,32.38
2018-03-17T13:43:31.029Z,31.35
2018-03-17T13:45:58.571Z,89.37
2018-03-17T13:48:26.119Z,31.30
2018-03-17T13:50:53.758Z,33.10
2018-03-17T13:53:21.300Z,30.83
2018-03-17T13:55:49.630Z,31.42
2018-03-17T13:58:17.185Z,30.80
2018-03-17T14:00:44.784Z,27.30
2018-03-17T14:03:12.334Z,33.38
2018-03-17T14:05:39.898Z,32.55
2018-03-17T14:08:07.446Z,36.60
2018-03-17T14:10:34.989Z,30.83
2018-03-17T14:13:02.556Z,27.67
2018-03-17T14:15:30.094Z,36.38
2018-03-17T14:17:57.673Z,32.30
2018-03-17T14:20:25.219Z,32.22
2018-03-17T14:22:52.800Z,30.33
2018-03-17T14:25:20.386Z,28.65
2018-03-17T14:27:47.976Z,28.05
2018-03-17T14:30:16.308Z,31.02
2018-03-17T14:32:43.845Z,29.65
2018-03-17T14:35:14.540Z,29.95
2018-03-17T14:37:42.848Z,28.95
2018-03-17T14:40:10.399Z,29.65
2018-03-17T14:42:37.965Z,31.42
2018-03-17T14:45:06.365Z,35.85
2018-03-17T14:47:34.681Z,30.83
2018-03-17T14:50:02.245Z,32.55
2018-03-17T14:52:29.785Z,35.97
2018-03-17T14:54:57.350Z,37.35
2018-03-17T14:57:24.892Z,34.30
2018-03-17T14:59:52.471Z,32.05
2018-03-17T15:02:20.009Z,36.88
2018-03-17T15:04:47.580Z,31.50
2018-03-17T15:07:15.121Z,38.15
2018-03-17T15:09:42.692Z,35.72
2018-03-17T15:12:10.240Z,34.30
2018-03-17T15:14:38.556Z,38.15
2018-03-17T15:17:06.163Z,30.65
2018-03-17T15:19:33.700Z,30.50
2018-03-17T15:22:01.294Z,32.00
2018-03-17T15:24:29.617Z,37.22
2018-03-17T15:26:57.173Z,38.10
2018-03-17T15:29:24.731Z,37.30
2018-03-17T15:31:52.290Z,35.17
2018-03-17T15:34:19.836Z,34.90
2018-03-17T15:36:47.398Z,36.60
2018-03-17T15:39:14.932Z,36.35
2018-03-17T15:41:42.518Z,38.17
2018-03-17T15:44:10.078Z,37.10
2018-03-17T15:46:37.650Z,37.67
2018-03-17T15:49:05.201Z,33.28
2018-03-17T15:51:32.745Z,40.47
2018-03-17T15:54:00.309Z,36.47
2018-03-17T15:56:27.856Z,39.53
2018-03-17T15:58:55.419Z,37.85
2018-03-17T16:01:22.969Z,36.78
2018-03-17T16:03:50.508Z,35.92
2018-03-17T16:06:18.837Z,38.70
2018-03-17T16:08:46.380Z,41.25
2018-03-17T16:11:13.951Z,34.05
2018-03-17T16:13:41.505Z,38.30
2018-03-17T16:16:09.066Z,38.75
2018-03-17T16:18:36.618Z,39.13
2018-03-17T16:21:04.207Z,39.33
2018-03-17T16:23:31.753Z,34.72
2018-03-17T16:25:59.337Z,36.20
2018-03-17T16:28:26.897Z,37.47
2018-03-17T16:30:54.485Z,44.58
2018-03-17T16:33:22.797Z,43.87
2018-03-17T16:35:50.378Z,40.70
2018-03-17T16:38:17.915Z,34.60
2018-03-17T16:40:45.500Z,34.70
2018-03-17T16:43:13.054Z,34.13
2018-03-17T16:45:40.664Z,32.80
2018-03-17T16:48:09.009Z,38.17
2018-03-17T16:50:36.590Z,31.90
2018-03-17T16:53:04.937Z,35.15
2018-03-17T16:55:32.532Z,38.55
2018-03-17T16:58:00.093Z,37.63
2018-03-17T17:00:28.435Z,37.05
2018-03-17T17:02:55.973Z,35.05
2018-03-17T17:05:23.518Z,31.48
2018-03-17T17:07:51.064Z,30.17
2018-03-17T17:10:19.391Z,31.17
2018-03-17T17:12:46.927Z,30.27
2018-03-17T17:15:14.494Z,31.17
2018-03-17T17:17:42.054Z,32.65
2018-03-17T17:20:09.617Z,37.08
2018-03-17T17:22:37.232Z,33.58
2018-03-17T17:25:04.756Z,29.37
2018-03-17T17:27:32.313Z,32.78
2018-03-17T17:29:59.858Z,32.63
2018-03-17T17:32:27.409Z,30.83
2018-03-17T17:34:54.969Z,29.08
2018-03-17T17:37:22.561Z,33.33
2018-03-17T17:39:50.117Z,30.62
2018-03-17T17:42:17.747Z,35.47
2018-03-17T17:44:45.287Z,31.08
2018-03-17T17:47:13.623Z,27.42
2018-03-17T17:49:41.230Z,28.10
2018-03-17T17:52:08.798Z,30.00
2018-03-17T17:54:36.358Z,29.73
2018-03-17T17:57:03.902Z,29.75
2018-03-17T17:59:32.245Z,34.53
2018-03-17T18:01:59.790Z,27.70
2018-03-17T18:04:27.343Z,30.35
2018-03-17T18:06:54.913Z,29.20
2018-03-17T18:09:22.489Z,30.23
2018-03-17T18:11:50.809Z,26.02
2018-03-17T18:14:18.369Z,31.00
2018-03-17T18:16:45.939Z,27.23
2018-03-17T18:19:13.517Z,26.60
2018-03-17T18:21:41.086Z,28.40
2018-03-17T18:24:10.143Z,31.33
2018-03-17T18:26:37.709Z,38.28
2018-03-17T18:29:05.245Z,28.05
2018-03-17T18:31:32.817Z,27.00
2018-03-17T18:34:00.393Z,27.20
2018-03-17T18:36:27.988Z,29.33
2018-03-17T18:38:56.332Z,26.00
2018-03-17T18:41:23.899Z,32.10
2018-03-17T18:43:51.475Z,28.50
2018-03-17T18:46:19.223Z,29.83
2018-03-17T18:48:46.952Z,26.15
2018-03-17T18:51:14.520Z,30.15
2018-03-17T18:53:42.093Z,25.48
2018-03-17T18:56:09.669Z,28.12
2018-03-17T18:58:37.246Z,28.55
2018-03-17T19:01:04.792Z,32.65
2018-03-17T19:03:32.358Z,27.85
2018-03-17T19:05:59.934Z,28.73
2018-03-17T19:08:27.475Z,28.00
2018-03-17T19:10:55.048Z,25.27
2018-03-17T19:13:22.625Z,28.30
2018-03-17T19:15:50.939Z,30.75
2018-03-17T19:18:18.515Z,31.90
2018-03-17T19:20:46.066Z,30.02
2018-03-17T19:23:13.650Z,26.15
2018-03-17T19:25:41.229Z,30.73
2018-03-17T19:28:08.791Z,29.55
2018-03-17T19:30:36.335Z,31.87
2018-03-17T19:33:03.912Z,30.00
2018-03-17T19:35:31.459Z,31.27
2018-03-17T19:37:59.048Z,40.47
2018-03-17T19:40:27.378Z,29.85
2018-03-17T19:42:54.939Z,30.15
2018-03-17T19:45:22.528Z,31.67
2018-03-17T19:47:50.081Z,32.20
2018-03-17T19:50:17.664Z,33.13
2018-03-17T19:52:45.997Z,33.00
2018-03-17T19:55:13.528Z,31.05
2018-03-17T19:57:41.108Z,31.08
2018-03-17T20:00:08.701Z,31.37
2018-03-17T20:02:36.285Z,34.85
2018-03-17T20:05:03.835Z,35.15
2018-03-17T20:07:31.400Z,31.58
2018-03-17T20:09:58.971Z,31.37
2018-03-17T20:12:27.293Z,32.63
2018-03-17T20:14:54.844Z,24.83
2018-03-17T20:17:22.400Z,33.25
2018-03-17T20:19:49.963Z,27.40
2018-03-17T20:22:17.537Z,26.95
2018-03-17T20:24:45.074Z,32.15
2018-03-17T20:27:12.645Z,32.38
2018-03-17T20:29:40.200Z,30.37
2018-03-17T20:32:07.794Z,31.40
2018-03-17T20:34:35.391Z,33.42
2018-03-17T20:37:03.704Z,38.08
2018-03-17T20:39:31.249Z,31.27
2018-03-17T20:41:58.850Z,38.95
2018-03-17T20:44:26.401Z,36.45
2018-03-17T20:46:53.982Z,33.53
2018-03-17T20:49:21.535Z,31.58
2018-03-17T20:51:49.102Z,42.50
2018-03-17T20:54:16.676Z,28.77
2018-03-17T20:56:45.025Z,36.35
2018-03-17T20:59:13.278Z,35.20
2018-03-17T21:01:41.456Z,35.47
2018-03-17T21:04:09.045Z,41.22
2018-03-17T21:06:36.590Z,37.90
2018-03-17T21:09:04.596Z,36.25
2018-03-17T21:11:32.925Z,37.88
2018-03-17T21:14:00.470Z,41.72
2018-03-17T21:16:28.067Z,38.80
2018-03-17T21:18:55.676Z,40.50
2018-03-17T21:21:23.256Z,51.25
2018-03-17T21:23:50.813Z,40.75
2018-03-17T21:26:18.410Z,41.08
2018-03-17T21:28:45.981Z,35.55
2018-03-17T21:31:13.528Z,33.28
2018-03-17T21:33:41.115Z,40.45
2018-03-17T21:36:08.696Z,38.10
2018-03-17T21:38:37.011Z,42.25
2018-03-17T21:41:04.576Z,40.65
2018-03-17T21:43:32.129Z,37.92
2018-03-17T21:45:59.720Z,33.95
2018-03-17T21:48:27.801Z,38.38
2018-03-17T21:50:55.362Z,39.40
2018-03-17T21:53:22.926Z,40.58
2018-03-17T21:55:52.120Z,39.22
2018-03-17T21:58:19.672Z,38.10
2018-03-17T22:00:47.236Z,40.58
2018-03-17T22:03:14.856Z,40.22
2018-03-17T22:05:42.448Z,40.85
2018-03-17T22:08:10.006Z,41.50
2018-03-17T22:10:37.575Z,43.22
2018-03-17T22:13:05.145Z,43.85
2018-03-17T22:15:32.690Z,36.38
2018-03-17T22:18:00.264Z,42.83
2018-03-17T22:20:28.619Z,32.72
2018-03-17T22:22:56.188Z,42.28
2018-03-17T22:25:23.765Z,41.35
2018-03-17T22:27:52.094Z,40.63
2018-03-17T22:30:19.653Z,37.47
2018-03-17T22:32:47.208Z,39.60
2018-03-17T22:35:14.748Z,43.17
2018-03-17T22:37:42.312Z,39.85
2018-03-17T22:40:09.857Z,37.47
2018-03-17T22:42:37.436Z,41.35
2018-03-17T22:45:04.977Z,38.70
2018-03-17T22:47:32.563Z,47.13
2018-03-17T22:50:00.127Z,36.03
2018-03-17T22:52:27.683Z,41.55
2018-03-17T22:54:55.262Z,39.38
2018-03-17T22:57:22.827Z,37.90
2018-03-17T22:59:50.389Z,40.47
2018-03-17T23:02:17.961Z,39.90
2018-03-17T23:04:45.517Z,36.03
2018-03-17T23:07:13.088Z,36.58
2018-03-17T23:09:40.674Z,36.03
2018-03-17T23:12:09.070Z,36.63
2018-03-17T23:14:36.648Z,31.33
2018-03-17T23:17:04.221Z,36.22
2018-03-17T23:19:31.801Z,30.85
2018-03-17T23:21:59.348Z,32.83
2018-03-17T23:24:26.905Z,32.53
2018-03-17T23:26:54.449Z,31.20
2018-03-17T23:29:22.098Z,39.05
2018-03-17T23:31:49.653Z,37.17
2018-03-17T23:34:17.205Z,27.58
2018-03-17T23:36:44.750Z,34.92
2018-03-17T23:39:13.092Z,35.33
2018-03-17T23:41:40.638Z,33.00
2018-03-17T23:44:08.192Z,28.50
2018-03-17T23:46:35.760Z,30.90
2018-03-17T23:49:03.332Z,31.35
2018-03-17T23:51:30.924Z,33.42
2018-03-17T23:53:59.224Z,33.20
2018-03-17T23:56:26.787Z,34.72
2018-03-17T23:58:54.389Z,36.25
